Anchorage/Merrill Field, Alaska
Current Conditions -  °F | °C
As of 6:53 AM on Thursday 30 Oct 2014 (Local Time) from PAMR Reporting Station
Scattered Clouds Scattered Clouds  
Wind Chill: 22°   Ceiling: Unl
Heat Index: 22°   Visibility: 9mi
Dew Point: 16°   Wind: 0mph
Humidity: 78%   Direction: NA
Pressure: 29.61"   Gusts: NA
Location:  61.21°N, 149.85°W
Report Text: PAMR 301453Z 00000KT 9SM FEW070 SCT120 M06/M09 A2961 RMK AO2 SLP029 T10561089 56017
Loading
Personal Weather Stations






























Interactive Weather Map New forecast layout! Learn more

10-Day Weather Forecast

Advertisements
Track Severe Weather on mobile